Fredericksburg, TX

4:34 AM CDT on September 01, 2015 (GMT -0500)
fredericksburg-JSULAK | | Change Station
CLOSE
Current Station
Personal Weather Station
Location: Fredericksburg, TX
Elevation: 1745 ft
Nearby Weather Stations

Elev 1745 ft 30.29 °N, 98.88 °W | Updated 67 days ago

Partly Cloudy
Partly Cloudy
70 °F
Feels Like 70 °F
N
2
Wind Variable Wind from ESE
Gusts mph

Today
High -- | Low -- °F
--% Chance of Precip.
Yesterday
High -- | Low -- °F
Precip. -- in
7:12 AM 7:58 PM
Waning Gibbous, 90% visible
Pressure 30.04 in
Visibility 10.0 miles
Clouds Clear
Dew Point 68 °F
Humidity 95%
Rainfall in
Snow Depth Not available.
UV 0 out of 12
Pollen 8.40 out of 12
Air Quality Not available.
Flu Activity Not available.
METAR KT82 010915Z AUTO 00000KT 10SM CLR 22/19 A3004 RMK AO2 T02180191
Pressure 30.04 in
Visibility 10.0 miles
Clouds Clear
Dew Point 68 °F
Humidity 95%
Rainfall in
Snow Depth Not available.
UV 0 out of 12
Pollen 8.40 out of 12
Air Quality Not available.
Flu Activity Not available.
METAR KT82 010915Z AUTO 00000KT 10SM CLR 22/19 A3004 RMK AO2 T02180191

10-Day Weather Forecast

×

Almanac

Astronomy

Sep. 01, 2015 Rise Set
Actual Time
Civil Twilight
Nautical Twilight
Astronomical Twilight
Moon
Length of Visible Light
Length of Day
Tomorrow will be .
, % of the Moon is Illuminated

Today's Extremes

State Highs State Lows

Community

WunderPhotos

Upload Photos

1,851,499 photos uploaded!

WunderBlogs® & News

Nearby

Air Quality

  Air Quality AQ Index Pollutant
Not available.

Snow Depth

Station Depth Elevation

Earthquake Activity

City Distance Mag. Time & Date
Minimum magnitude displayed is 2.5.

Coastal Water Temperatures

Place Temperature

Stations

Nearby Weather Stations

Station Location Temp. Windchill Dew Point Humidity Wind Precip. Elev Updated Type